Time;durP1;ratioP1;P1;durP2;ratioP2;P2;SDS_P1;SDS_P2;PMS_P1;PMS_P2;Temp;Humidity;BMP_temperature;BMP_pressure;BME280_temperature;BME280_humidity;BME280_pressure;Samples;Min_cycle;Max_cycle;Signal;HPM_P1;HPM_P2
2022/11/11 00:03:55;;;;;;;1.73;1.40;;;;;;;20.67;55.13;98242.91;10512589;28;20515;-58
2022/11/11 00:09:34;;;;;;;2.35;1.55;;;;;;;20.65;55.13;98233.47;10520108;28;20291;-58
2022/11/11 00:15:13;;;;;;;2.17;1.33;;;;;;;20.66;55.27;98245.91;10527950;28;20055;-57
2022/11/11 00:26:48;;;;;;;2.20;1.30;;;;;;;20.61;55.21;98246.00;10513344;28;20048;-57
2022/11/11 00:32:27;;;;;;;2.13;1.30;;;;;;;20.60;55.17;98242.50;10542433;28;20044;-57
2022/11/11 00:38:44;;;;;;;1.85;1.35;;;;;;;20.59;55.24;98246.28;10537225;28;20088;-57
2022/11/11 00:44:09;;;;;;;1.98;1.52;;;;;;;20.58;55.27;98254.69;10495398;28;20048;-57
2022/11/11 00:55:44;;;;;;;1.40;1.20;;;;;;;20.55;55.14;98247.97;10515426;28;20113;-57
2022/11/11 01:01:22;;;;;;;1.40;1.30;;;;;;;20.54;55.29;98251.75;10518999;28;20110;-56
2022/11/11 01:07:01;;;;;;;2.25;1.50;;;;;;;20.53;55.26;98266.41;10525999;28;20678;-57
2022/11/11 01:12:39;;;;;;;1.58;1.20;;;;;;;20.52;55.14;98264.78;10557805;28;20043;-55
2022/11/11 01:18:23;;;;;;;1.70;1.33;;;;;;;20.50;55.21;98266.97;10540975;28;20052;-58
2022/11/11 01:24:02;;;;;;;1.42;1.30;;;;;;;20.49;55.24;98268.88;10516956;28;20410;-57
2022/11/11 01:29:40;;;;;;;;;;;;;;;20.47;55.35;98273.78;10537734;28;20093;-58
2022/11/11 01:35:18;;;;;;;1.30;1.05;;;;;;;20.47;55.11;98278.41;10509899;28;19919;-57
2022/11/11 01:40:57;;;;;;;1.30;1.05;;;;;;;20.44;55.19;98285.19;10525681;28;20052;-57
2022/11/11 01:46:41;;;;;;;;;;;;;;;20.43;55.13;98280.09;10534758;28;20434;-56
2022/11/11 01:52:29;;;;;;;1.42;1.10;;;;;;;20.43;55.03;98288.22;10485735;28;20367;-57
2022/11/11 01:58:13;;;;;;;1.20;1.10;;;;;;;20.41;54.84;98285.81;10529358;28;20051;-58
2022/11/11 02:09:51;;;;;;;1.27;1.10;;;;;;;20.40;54.82;98297.72;10504923;28;20049;-57
2022/11/11 02:15:29;;;;;;;1.40;1.20;;;;;;;20.37;54.85;98287.50;10486783;28;20105;-57
2022/11/11 02:21:10;;;;;;;1.98;1.20;;;;;;;20.37;54.75;98265.03;10532992;28;20514;-58
2022/11/11 02:26:48;;;;;;;1.30;1.20;;;;;;;20.34;54.75;98272.63;10522200;28;20040;-57
2022/11/11 02:32:27;;;;;;;1.00;0.90;;;;;;;20.33;54.71;98262.13;10493396;28;20052;-58
2022/11/11 02:38:07;;;;;;;1.20;1.10;;;;;;;20.31;54.58;98259.69;10501761;28;20048;-58
2022/11/11 02:43:45;;;;;;;1.25;1.13;;;;;;;20.31;54.71;98270.50;10507656;28;20052;-58
2022/11/11 02:49:23;;;;;;;1.10;1.00;;;;;;;20.29;54.69;98259.19;10529904;28;20047;-57
2022/11/11 02:55:03;;;;;;;1.17;1.08;;;;;;;20.28;54.66;98262.97;10518429;28;20032;-57
2022/11/11 03:00:42;;;;;;;1.23;1.00;;;;;;;20.28;54.65;98271.09;10520589;28;20055;-58
2022/11/11 03:06:20;;;;;;;1.10;1.00;;;;;;;20.27;54.65;98279.53;10497921;28;20387;-54
2022/11/11 03:11:58;;;;;;;1.20;1.10;;;;;;;20.24;54.61;98286.31;10521836;28;20037;-57
2022/11/11 03:17:39;;;;;;;1.40;1.20;;;;;;;20.23;54.64;98292.84;10533792;28;20437;-58
2022/11/11 03:23:17;;;;;;;1.35;1.05;;;;;;;20.22;54.61;98295.81;10519519;28;20045;-57
2022/11/11 03:28:56;;;;;;;1.10;1.00;;;;;;;20.20;54.66;98295.31;10505246;28;20048;-58
2022/11/11 03:34:34;;;;;;;1.70;1.05;;;;;;;20.18;54.57;98284.78;10516983;28;20060;-57
2022/11/11 03:40:12;;;;;;;;;;;;;;;20.16;54.45;98286.97;10518963;28;20090;-58
2022/11/11 03:45:52;;;;;;;1.25;1.10;;;;;;;20.17;54.49;98285.06;10527339;28;20288;-57
2022/11/11 03:51:31;;;;;;;1.13;1.02;;;;;;;20.15;54.50;98282.66;10530581;28;20502;-58
2022/11/11 04:27:15;;;;;;;1.20;1.10;;;;;;;20.05;54.45;98286.31;10498222;28;20048;-58
2022/11/11 04:32:54;;;;;;;1.20;1.00;;;;;;;20.04;54.40;98283.91;10526033;28;20045;-57
2022/11/11 04:50:29;;;;;;;1.10;1.00;;;;;;;20.01;54.38;98298.00;10526500;28;20051;-58
2022/11/11 05:25:55;;;;;;;1.20;0.88;;;;;;;19.95;54.82;98300.78;10512905;28;20055;-57
2022/11/11 05:31:33;;;;;;;1.08;0.98;;;;;;;19.95;54.86;98317.00;10511760;28;20045;-57
2022/11/11 05:37:12;;;;;;;2.67;0.95;;;;;;;19.95;54.96;98317.00;10546656;28;20043;-59
2022/11/11 05:42:50;;;;;;;0.80;0.80;;;;;;;19.97;54.91;98324.00;10545890;28;20525;-58
2022/11/11 05:48:28;;;;;;;2.53;0.82;;;;;;;19.95;55.05;98325.13;10518877;28;20055;-59
2022/11/11 05:54:07;;;;;;;1.73;1.00;;;;;;;19.97;54.97;98316.69;10523475;28;20093;-58
2022/11/11 05:59:47;;;;;;;1.38;1.00;;;;;;;19.98;54.92;98304.78;10511365;28;20053;-58
2022/11/11 06:05:25;;;;;;;1.08;0.98;;;;;;;19.98;55.19;98307.50;10492133;28;20049;-57
2022/11/11 06:11:03;;;;;;;5.63;2.50;;;;;;;19.95;51.67;98308.06;10496837;28;20449;-55
2022/11/11 06:16:42;;;;;;;5.82;1.70;;;;;;;19.95;53.87;98319.72;10506491;28;20044;-57
2022/11/11 06:22:54;;;;;;;8.93;3.17;;;;;;;19.99;53.77;98325.31;10524740;28;20040;-57
2022/11/11 06:28:18;;;;;;;12.02;3.80;;;;;;;20.00;53.90;98326.94;10519965;28;20059;-56
2022/11/11 06:33:56;;;;;;;11.73;4.10;;;;;;;20.01;54.01;98323.13;10483716;28;20049;-57
2022/11/11 06:39:35;;;;;;;10.80;4.10;;;;;;;20.03;54.11;98331.78;10525026;28;20052;-57
2022/11/11 06:45:13;;;;;;;9.43;3.50;;;;;;;20.06;54.14;98352.03;10533413;28;20098;-57
2022/11/11 06:50:51;;;;;;;11.82;3.88;;;;;;;20.08;54.16;98360.66;10527947;28;20048;-56
2022/11/11 06:56:30;;;;;;;7.30;3.50;;;;;;;20.10;54.22;98363.88;10507228;28;20059;-57
2022/11/11 07:02:14;;;;;;;12.43;3.70;;;;;;;20.11;54.18;98355.50;10536534;28;20055;-58
2022/11/11 07:07:52;;;;;;;9.05;3.55;;;;;;;20.14;54.32;98360.31;10505102;28;20056;-56
2022/11/11 07:13:30;;;;;;;9.15;3.28;;;;;;;20.15;54.42;98347.59;10532713;28;20048;-58
2022/11/11 07:19:09;;;;;;;9.55;3.20;;;;;;;20.19;54.34;98372.16;10505997;28;20056;-57
2022/11/11 07:24:47;;;;;;;7.35;3.30;;;;;;;20.20;54.47;98371.88;10522480;28;20502;-58
2022/11/11 07:30:25;;;;;;;8.07;3.03;;;;;;;20.23;54.61;98370.47;10506499;28;20129;-51
2022/11/11 07:36:04;;;;;;;7.85;3.30;;;;;;;20.25;54.61;98376.44;10489225;28;20388;-58
2022/11/11 07:41:42;;;;;;;8.38;3.17;;;;;;;20.28;54.55;98373.13;10521973;28;20051;-57
2022/11/11 07:47:20;;;;;;;7.88;2.95;;;;;;;20.28;54.57;98365.81;10499887;28;20059;-57
2022/11/11 07:52:58;;;;;;;7.57;2.75;;;;;;;20.31;54.61;98378.78;10528688;28;20503;-57
2022/11/11 07:58:36;;;;;;;8.27;3.53;;;;;;;20.35;54.63;98384.41;10523245;28;20052;-57
2022/11/11 08:04:15;;;;;;;8.05;2.95;;;;;;;20.37;54.72;98389.53;10517982;28;20137;-57
2022/11/11 08:09:53;;;;;;;5.72;2.65;;;;;;;20.40;54.69;98378.13;10534520;28;20427;-56
2022/11/11 08:15:31;;;;;;;7.00;2.72;;;;;;;20.41;54.55;98391.38;10503844;28;20568;-57
2022/11/11 08:21:10;;;;;;;6.65;2.47;;;;;;;20.44;54.60;98395.38;10519762;28;20056;-57
2022/11/11 08:26:48;;;;;;;5.35;2.55;;;;;;;20.45;54.56;98386.19;10539499;28;20043;-57
2022/11/11 08:32:27;;;;;;;6.47;2.67;;;;;;;20.49;54.59;98384.50;10503424;28;20066;-57
2022/11/11 08:38:05;;;;;;;5.47;2.53;;;;;;;20.51;54.61;98399.34;10530612;28;20052;-55
2022/11/11 08:43:44;;;;;;;5.43;2.40;;;;;;;20.54;54.55;98420.44;10523515;28;20040;-58
2022/11/11 08:49:22;;;;;;;7.53;2.58;;;;;;;20.55;54.55;98407.69;10503307;28;20048;-58
2022/11/11 08:55:00;;;;;;;4.03;2.35;;;;;;;20.58;54.59;98407.13;10514460;28;20055;-57
2022/11/11 09:00:39;;;;;;;4.25;2.22;;;;;;;20.59;54.60;98416.88;10505802;28;20052;-58
2022/11/11 09:06:17;;;;;;;;;;;;;;;20.62;54.55;98415.47;10508387;28;20051;-56
2022/11/11 09:11:55;;;;;;;3.97;2.25;;;;;;;20.63;54.49;98426.03;10533541;28;20282;-57
2022/11/11 09:17:34;;;;;;;4.35;2.40;;;;;;;20.65;54.46;98440.06;10520474;28;20048;-57
2022/11/11 09:23:12;;;;;;;5.95;2.40;;;;;;;20.67;54.36;98445.22;10547889;28;20055;-58
2022/11/11 09:28:50;;;;;;;5.38;2.25;;;;;;;20.68;54.35;98439.50;10541073;28;20063;-58
2022/11/11 09:34:28;;;;;;;6.57;2.22;;;;;;;20.70;54.31;98444.63;10518623;28;20059;-57
2022/11/11 09:40:18;;;;;;;3.45;2.20;;;;;;;20.71;54.26;98444.31;10514919;28;20059;-58
2022/11/11 09:46:21;;;;;;;5.55;2.33;;;;;;;20.74;54.33;98460.00;10536605;28;20487;-57
2022/11/11 09:52:09;;;;;;;3.83;2.08;;;;;;;20.76;54.31;98467.84;10522380;28;20036;-57
2022/11/11 09:57:52;;;;;;;3.17;2.20;;;;;;;20.77;54.27;98465.94;10512737;28;20090;-57
2022/11/11 10:03:33;;;;;;;4.30;2.22;;;;;;;20.79;54.21;98477.28;10529586;28;20074;-57
2022/11/11 10:09:26;;;;;;;3.30;2.00;;;;;;;20.81;54.13;98475.06;10492251;28;20389;-57
2022/11/11 10:15:10;;;;;;;5.18;2.03;;;;;;;20.83;54.20;98486.44;10519713;28;20380;-57
2022/11/11 10:20:53;;;;;;;3.20;1.80;;;;;;;20.84;54.18;98474.50;10519463;28;20052;-57
2022/11/11 10:26:36;;;;;;;4.95;2.30;;;;;;;20.85;54.00;98467.97;10503581;28;20051;-57
2022/11/11 10:32:31;;;;;;;2.83;1.90;;;;;;;20.87;54.10;98463.06;10507117;28;20056;-57
2022/11/11 10:38:09;;;;;;;2.60;1.90;;;;;;;20.88;53.94;98459.28;10494090;28;20052;-54
2022/11/11 10:43:48;;;;;;;3.10;2.30;;;;;;;20.89;53.97;98440.00;10510890;28;20372;-57
2022/11/11 10:49:29;;;;;;;2.72;1.65;;;;;;;20.89;54.12;98440.00;10522539;28;20056;-57
2022/11/11 10:55:22;;;;;;;3.67;2.05;;;;;;;20.91;54.00;98443.25;10533619;28;20384;-58
2022/11/11 11:01:02;;;;;;;2.60;1.90;;;;;;;20.92;53.95;98446.75;10501702;28;20059;-57
2022/11/11 11:06:43;;;;;;;2.78;1.80;;;;;;;20.93;54.01;98449.19;10501855;28;20098;-57
2022/11/11 11:12:31;;;;;;;5.00;1.83;;;;;;;20.96;53.94;98446.97;10505691;28;20502;-57
2022/11/11 11:18:12;;;;;;;2.72;1.60;;;;;;;20.95;53.97;98427.19;10523500;28;20063;-58
2022/11/11 11:23:50;;;;;;;5.05;1.90;;;;;;;20.97;53.81;98440.44;10502408;28;20041;-57
2022/11/11 11:29:34;;;;;;;3.30;1.77;;;;;;;20.99;53.86;98438.25;10512504;28;20053;-57
2022/11/11 11:35:29;;;;;;;2.90;1.75;;;;;;;20.99;53.81;98444.47;10518205;28;20305;-57
2022/11/11 11:41:07;;;;;;;2.63;1.80;;;;;;;21.01;53.71;98441.47;10520837;28;20074;-58
2022/11/11 11:46:45;;;;;;;5.07;1.77;;;;;;;21.01;53.80;98441.47;10495389;28;20047;-58
2022/11/11 11:52:34;;;;;;;;;;;;;;;21.02;53.75;98424.94;10488792;28;20056;-57
2022/11/11 11:58:23;;;;;;;2.65;1.75;;;;;;;21.03;53.64;98428.44;10497892;28;19928;-58
2022/11/11 12:04:32;;;;;;;2.80;1.67;;;;;;;21.03;53.68;98423.84;10509557;28;20059;-57
2022/11/11 12:10:23;;;;;;;2.55;1.50;;;;;;;21.04;53.61;98420.03;10513974;28;20059;-58
2022/11/11 12:16:13;;;;;;;2.25;1.60;;;;;;;21.05;53.59;98410.81;10496575;28;20037;-58
2022/11/11 12:22:17;;;;;;;2.20;1.60;;;;;;;21.06;53.63;98417.81;10514538;28;20446;-57
2022/11/11 12:28:02;;;;;;;3.13;1.60;;;;;;;21.06;53.56;98415.09;10517984;28;20053;-57
2022/11/11 12:33:51;;;;;;;2.47;1.60;;;;;;;21.07;53.52;98416.72;10500174;28;20114;-58
2022/11/11 12:39:50;;;;;;;2.38;1.40;;;;;;;21.08;53.48;98410.19;10512658;28;20052;-58
2022/11/11 12:45:36;;;;;;;2.40;1.60;;;;;;;21.09;53.35;98408.28;10543911;28;20047;-57
2022/11/11 12:51:32;;;;;;;2.00;1.52;;;;;;;21.09;53.49;98406.41;10504175;28;20056;-58
2022/11/11 12:58:24;;;;;;;3.55;1.65;;;;;;;21.10;53.47;98399.88;10497306;28;20044;-58
2022/11/11 13:04:50;;;;;;;1.73;1.40;;;;;;;21.11;53.42;98393.38;10350670;28;20129;-57
2022/11/11 13:10:39;;;;;;;3.17;1.55;;;;;;;21.13;53.42;98390.38;10471486;28;20052;-58
2022/11/11 13:16:22;;;;;;;2.00;1.42;;;;;;;21.13;53.35;98390.38;10532912;28;20843;-55
2022/11/11 13:22:30;;;;;;;1.90;1.50;;;;;;;21.14;53.41;98402.78;10534586;28;20047;-57
2022/11/11 13:28:16;;;;;;;1.88;1.40;;;;;;;21.14;53.49;98387.34;10544494;28;20411;-57
2022/11/11 13:33:57;;;;;;;1.65;1.23;;;;;;;21.16;53.42;98391.66;10518132;28;20052;-57
2022/11/11 13:40:21;;;;;;;1.92;1.48;;;;;;;21.16;53.39;98395.16;10511307;28;20494;-57
2022/11/11 13:46:00;;;;;;;1.83;1.40;;;;;;;21.17;53.33;98385.13;10506968;28;20070;-58
2022/11/11 13:51:41;;;;;;;2.20;1.30;;;;;;;21.17;53.34;98398.69;10488108;28;20101;-58
2022/11/11 13:57:21;;;;;;;2.58;1.35;;;;;;;21.17;53.31;98394.09;10534863;28;20055;-52
2022/11/11 14:03:19;;;;;;;2.38;1.58;;;;;;;21.18;53.32;98390.25;10511682;28;20062;-56
2022/11/11 14:08:57;;;;;;;2.00;1.30;;;;;;;21.18;53.15;98397.59;10524767;28;20114;-58
2022/11/11 14:14:35;;;;;;;1.70;1.20;;;;;;;21.19;53.12;98399.19;10527239;28;20040;-58
2022/11/11 14:20:47;;;;;;;2.10;1.35;;;;;;;21.18;53.17;98405.72;10497399;28;20110;-57
2022/11/11 14:26:27;;;;;;;1.98;1.50;;;;;;;21.18;52.82;98395.69;10482450;28;20482;-58
2022/11/11 14:32:08;;;;;;;2.22;1.50;;;;;;;21.18;52.84;98392.16;10514793;28;20048;-58
2022/11/11 14:38:12;;;;;;;5.00;1.70;;;;;;;21.18;51.35;98403.81;10507313;28;20048;-58
2022/11/11 14:43:50;;;;;;;6.60;4.07;;;;;;;20.73;43.86;98415.03;10528544;28;20052;-58
2022/11/11 14:49:51;;;;;;;6.35;3.45;;;;;;;20.72;46.63;98418.88;10512943;28;20060;-57
2022/11/11 14:55:32;;;;;;;4.28;3.25;;;;;;;20.86;48.66;98413.50;10510980;28;20044;-58
2022/11/11 15:01:18;;;;;;;3.70;3.00;;;;;;;20.92;48.27;98412.34;10545587;28;20039;-59
2022/11/11 15:07:00;;;;;;;3.80;3.20;;;;;;;20.97;48.29;98416.06;10514185;28;20130;-59
2022/11/11 15:13:01;;;;;;;5.75;3.15;;;;;;;20.99;48.41;98405.75;10532692;28;20060;-59
2022/11/11 15:19:11;;;;;;;5.80;3.50;;;;;;;20.99;48.74;98395.69;10518301;28;20059;-58
2022/11/11 15:25:08;;;;;;;5.68;3.08;;;;;;;21.01;48.89;98398.94;10493541;28;20484;-58
2022/11/11 15:31:20;;;;;;;3.22;2.90;;;;;;;21.01;49.01;98403.53;10502935;28;20060;-58
2022/11/11 15:37:09;;;;;;;4.68;3.00;;;;;;;21.01;49.22;98407.06;10493657;28;20405;-58
2022/11/11 15:42:48;;;;;;;3.15;2.85;;;;;;;21.01;49.42;98403.53;10514016;28;20064;-58
2022/11/11 15:48:47;;;;;;;3.85;2.95;;;;;;;21.01;49.69;98404.38;10515901;28;20060;-58
2022/11/11 15:54:25;;;;;;;;;;;;;;;21.02;47.73;98422.22;10487590;28;20052;-58
2022/11/11 16:00:24;;;;;;;3.27;2.80;;;;;;;21.03;49.30;98404.88;10516145;28;19935;-57
2022/11/11 16:06:06;;;;;;;3.90;2.72;;;;;;;21.04;49.63;98406.47;10502618;28;20291;-56
2022/11/11 16:11:45;;;;;;;5.97;2.83;;;;;;;21.05;49.94;98404.56;10505904;28;20049;-57
2022/11/11 16:17:28;;;;;;;6.15;3.30;;;;;;;21.06;50.12;98408.91;10521802;28;20052;-51
2022/11/11 16:23:07;;;;;;;3.50;2.65;;;;;;;21.06;50.36;98404.28;10543875;28;20063;-58
2022/11/11 16:28:47;;;;;;;6.72;2.80;;;;;;;21.08;50.51;98407.50;10518139;28;20048;-58
2022/11/11 16:34:29;;;;;;;9.40;2.85;;;;;;;21.10;50.92;98412.63;10515081;28;21324;-59
2022/11/11 16:40:32;;;;;;;13.25;3.10;;;;;;;21.10;50.98;98410.72;10473396;28;20087;-58
2022/11/11 16:46:15;;;;;;;10.77;3.60;;;;;;;21.11;50.73;98396.06;10478412;28;20060;-58
2022/11/11 16:51:54;;;;;;;25.35;13.95;;;;;;;21.11;50.91;98414.22;10484930;28;20602;-57
2022/11/11 16:57:33;;;;;;;29.55;23.15;;;;;;;21.14;51.63;98413.63;10524120;28;20048;-57
2022/11/11 17:03:22;;;;;;;;;;;;;;;21.16;53.27;98421.47;10506285;28;20049;-58
2022/11/11 17:09:00;;;;;;;26.77;18.48;;;;;;;21.17;53.60;98420.38;10489864;28;20304;-58
2022/11/11 17:14:39;;;;;;;23.58;16.83;;;;;;;21.19;54.33;98413.56;10502278;28;20044;-58
2022/11/11 17:20:19;;;;;;;19.17;16.02;;;;;;;21.19;54.68;98410.03;10510634;28;20071;-59
2022/11/11 17:25:59;;;;;;;18.45;14.15;;;;;;;21.20;54.63;98406.22;10510967;28;20052;-58
2022/11/11 17:31:38;;;;;;;18.00;12.88;;;;;;;21.19;54.57;98410.84;10472523;28;20049;-59
2022/11/11 17:37:16;;;;;;;15.77;11.65;;;;;;;21.21;54.86;98415.97;10518702;28;20053;-59
2022/11/11 17:42:55;;;;;;;15.77;10.50;;;;;;;21.21;54.81;98429.50;10519189;28;20057;-59
2022/11/11 17:48:33;;;;;;;12.93;9.10;;;;;;;21.22;54.98;98428.41;10517391;28;20059;-57
2022/11/11 17:54:11;;;;;;;14.00;8.65;;;;;;;21.21;55.13;98437.63;10489494;28;20523;-57
2022/11/11 17:59:50;;;;;;;13.55;7.45;;;;;;;21.21;54.99;98434.94;10461956;28;20057;-58
2022/11/11 18:05:28;;;;;;;7.82;5.28;;;;;;;21.20;54.99;98433.34;10500684;28;20056;-58
2022/11/11 18:11:10;;;;;;;11.23;5.00;;;;;;;21.21;54.71;98440.34;10529147;28;20048;-58
2022/11/11 18:16:49;;;;;;;6.57;3.92;;;;;;;21.19;54.45;98440.66;10506759;28;20407;-58
2022/11/11 18:22:27;;;;;;;9.73;3.92;;;;;;;21.19;54.53;98429.00;10516866;28;20481;-58
2022/11/11 18:28:05;;;;;;;6.57;3.67;;;;;;;21.18;54.21;98435.53;10510885;28;20044;-58
2022/11/11 18:33:44;;;;;;;5.90;3.65;;;;;;;21.17;53.75;98439.34;10487297;28;20076;-59
2022/11/11 18:39:22;;;;;;;6.47;3.55;;;;;;;21.16;53.74;98438.53;10513958;28;20049;-58
2022/11/11 18:45:00;;;;;;;6.90;3.15;;;;;;;21.13;53.53;98426.38;10518292;28;20445;-59
2022/11/11 18:50:39;;;;;;;8.88;3.20;;;;;;;21.13;53.38;98429.09;10545785;28;20590;-59
2022/11/11 18:56:20;;;;;;;7.55;3.25;;;;;;;21.10;53.34;98431.59;10527278;28;20537;-59
2022/11/11 19:01:58;;;;;;;5.07;2.67;;;;;;;21.08;53.14;98434.59;10513514;28;20059;-57
2022/11/11 19:07:36;;;;;;;5.68;3.20;;;;;;;21.08;53.14;98444.63;10514463;28;20071;-59
2022/11/11 19:13:14;;;;;;;7.38;3.50;;;;;;;21.07;53.14;98445.72;10524977;28;20048;-58
2022/11/11 19:18:53;;;;;;;6.80;2.95;;;;;;;21.05;53.32;98445.19;10530900;28;20056;-59
2022/11/11 19:24:31;;;;;;;5.93;3.00;;;;;;;21.05;53.25;98453.31;10526299;28;20487;-57
2022/11/11 19:30:10;;;;;;;5.55;2.90;;;;;;;21.04;53.09;98463.38;10514375;28;20060;-57
2022/11/11 19:35:59;;;;;;;5.15;2.72;;;;;;;21.02;52.98;98459.34;10521800;28;20458;-57
2022/11/11 19:41:37;;;;;;;4.53;2.80;;;;;;;21.01;52.93;98469.41;10513346;28;20051;-58
2022/11/11 19:47:15;;;;;;;7.47;3.00;;;;;;;21.00;52.92;98466.97;10524350;28;20055;-58
2022/11/11 19:52:53;;;;;;;;;;;;;;;20.97;53.06;98462.94;10535481;28;20048;-58
2022/11/11 19:58:32;;;;;;;5.03;2.95;;;;;;;20.96;53.24;98453.19;10472189;28;19920;-56
2022/11/11 20:04:10;;;;;;;4.18;2.60;;;;;;;20.95;53.38;98462.41;10485240;28;20044;-59
2022/11/11 20:09:49;;;;;;;4.72;2.63;;;;;;;20.93;53.37;98465.44;10523472;28;20048;-57
2022/11/11 20:15:27;;;;;;;4.28;2.90;;;;;;;20.93;53.42;98472.75;10485038;28;20057;-57
2022/11/11 20:21:05;;;;;;;5.97;3.10;;;;;;;20.91;53.52;98474.94;10524665;28;20052;-59
2022/11/11 20:26:44;;;;;;;5.82;3.08;;;;;;;20.91;53.61;98475.75;10500130;28;20056;-58
2022/11/11 20:32:22;;;;;;;6.07;2.80;;;;;;;20.91;53.80;98474.94;10492668;28;20072;-58
2022/11/11 20:38:00;;;;;;;5.45;3.03;;;;;;;20.89;53.74;98469.00;10517248;28;20047;-56
2022/11/11 20:43:39;;;;;;;5.15;3.00;;;;;;;20.89;54.02;98477.94;10484678;28;20056;-57
2022/11/11 20:49:18;;;;;;;4.68;3.20;;;;;;;20.87;54.21;98479.31;10516440;28;20492;-57
2022/11/11 20:54:56;;;;;;;5.70;2.95;;;;;;;20.86;54.25;98475.81;10510942;28;20052;-58
2022/11/11 21:00:35;;;;;;;6.13;3.00;;;;;;;20.85;54.44;98481.53;10511131;28;20056;-58
2022/11/11 21:06:16;;;;;;;7.88;3.33;;;;;;;20.85;54.95;98484.22;10508572;28;20082;-59
2022/11/11 21:11:55;;;;;;;4.22;2.95;;;;;;;20.83;55.18;98484.50;10491685;28;20523;-55
2022/11/11 21:17:33;;;;;;;6.13;3.05;;;;;;;20.83;55.49;98484.50;10461746;28;20049;-59
2022/11/11 21:23:11;;;;;;;6.05;3.08;;;;;;;20.82;55.40;98482.13;10477516;28;20057;-59
2022/11/11 21:28:50;;;;;;;4.63;3.17;;;;;;;20.82;55.65;98480.22;10526601;28;20059;-60
2022/11/11 21:34:28;;;;;;;5.18;2.78;;;;;;;20.82;55.86;98476.72;10509554;28;20059;-59
2022/11/11 21:40:07;;;;;;;4.88;3.05;;;;;;;20.80;55.88;98478.91;10530135;28;20048;-59
2022/11/11 21:45:46;;;;;;;3.95;3.15;;;;;;;20.78;55.81;98476.47;10542914;28;20052;-59
2022/11/11 21:51:29;;;;;;;4.13;2.67;;;;;;;20.77;56.13;98476.75;10528399;28;20037;-58
2022/11/11 21:57:08;;;;;;;4.68;2.80;;;;;;;20.75;56.31;98471.63;10542955;28;20048;-59
2022/11/11 22:02:46;;;;;;;;;;;;;;;20.71;57.10;98470.59;10547060;28;20036;-59
2022/11/11 22:08:24;;;;;;;6.07;2.78;;;;;;;20.71;56.63;98476.03;10523074;28;19920;-59
2022/11/11 22:14:04;;;;;;;4.53;3.08;;;;;;;20.69;56.67;98472.81;10539199;28;20168;-59
2022/11/11 22:19:42;;;;;;;4.05;2.88;;;;;;;20.67;56.86;98462.25;10540819;28;20036;-59
2022/11/11 22:25:20;;;;;;;4.65;2.80;;;;;;;20.65;57.05;98467.16;10522851;28;20437;-58
2022/11/11 22:31:06;;;;;;;4.70;3.05;;;;;;;20.64;57.30;98465.56;10537430;28;20048;-58
2022/11/11 22:36:45;;;;;;;4.05;2.67;;;;;;;20.63;57.09;98461.22;10507137;28;20052;-59
2022/11/11 22:42:23;;;;;;;4.25;3.00;;;;;;;20.61;57.59;98458.00;10523824;28;20052;-58
2022/11/11 22:48:01;;;;;;;4.47;3.08;;;;;;;20.60;57.64;98447.47;10548961;28;20097;-60
2022/11/11 22:53:41;;;;;;;4.65;2.67;;;;;;;20.59;57.59;98435.00;10511694;28;20403;-59
2022/11/11 22:59:20;;;;;;;3.70;2.42;;;;;;;20.57;57.83;98432.56;10520967;28;20059;-56
2022/11/11 23:04:58;;;;;;;3.63;2.70;;;;;;;20.55;57.88;98429.34;10531935;28;20040;-57
2022/11/11 23:10:36;;;;;;;3.95;2.72;;;;;;;20.55;57.86;98429.34;10513659;28;20504;-59
2022/11/11 23:16:18;;;;;;;3.15;2.30;;;;;;;20.53;57.94;98431.56;10522547;28;20135;-59
2022/11/11 23:21:57;;;;;;;4.07;2.80;;;;;;;20.51;58.01;98429.13;10514947;28;20048;-58
2022/11/11 23:27:35;;;;;;;3.55;2.67;;;;;;;20.51;58.13;98428.31;10532781;28;20044;-60
2022/11/11 23:33:13;;;;;;;3.38;2.47;;;;;;;20.48;58.11;98432.44;10503933;28;20060;-59
2022/11/11 23:38:51;;;;;;;3.58;2.55;;;;;;;20.48;58.38;98429.72;10515272;28;20484;-59
2022/11/11 23:44:29;;;;;;;3.30;2.20;;;;;;;20.46;58.32;98431.88;10519745;28;20056;-59
2022/11/11 23:50:08;;;;;;;3.28;2.13;;;;;;;20.45;58.24;98434.91;10511684;28;20048;-59
2022/11/11 23:55:46;;;;;;;3.13;2.40;;;;;;;20.44;58.25;98433.28;10515831;28;20048;-59
